Time;durP1;ratioP1;P1;durP2;ratioP2;P2;SDS_P1;SDS_P2;PMS_P1;PMS_P2;Temp;Humidity;BMP_temperature;BMP_pressure;BME280_temperature;BME280_humidity;BME280_pressure;Samples;Min_cycle;Max_cycle;Signal;HPM_P1;HPM_P2
2021/12/08 00:00:50;;;;;;;36.07;21.77;;;;;;;;;;5032632;28;20048;-75
2021/12/08 00:03:16;;;;;;;37.60;21.17;;;;;;;;;;5032854;28;20116;-76
2021/12/08 00:05:44;;;;;;;37.20;21.83;;;;;;;;;;5032669;28;20470;-76
2021/12/08 00:08:10;;;;;;;39.17;23.00;;;;;;;;;;5032927;28;20053;-76
2021/12/08 00:13:07;;;;;;;36.70;22.00;;;;;;;;;;5032711;28;20037;-76
2021/12/08 00:15:33;;;;;;;33.97;19.80;;;;;;;;;;5031759;28;20024;-75
2021/12/08 00:18:00;;;;;;;36.70;20.97;;;;;;;;;;5031787;28;20025;-76
2021/12/08 00:20:31;;;;;;;41.90;21.27;;;;;;;;;;5035931;28;20082;-75
2021/12/08 00:22:57;;;;;;;33.23;20.47;;;;;;;;;;5036579;28;20080;-75
2021/12/08 00:25:23;;;;;;;37.73;20.60;;;;;;;;;;5036743;28;20108;-76
2021/12/08 00:27:49;;;;;;;37.73;20.20;;;;;;;;;;5036756;28;20072;-75
2021/12/08 00:30:16;;;;;;;34.50;19.73;;;;;;;;;;5036685;28;20021;-75
2021/12/08 00:32:42;;;;;;;37.77;21.07;;;;;;;;;;5036933;28;20018;-75
2021/12/08 00:35:08;;;;;;;33.43;20.30;;;;;;;;;;5036344;28;20131;-75
2021/12/08 00:37:35;;;;;;;32.87;18.63;;;;;;;;;;5036534;28;20100;-76
2021/12/08 00:40:01;;;;;;;33.37;18.60;;;;;;;;;;5036205;28;20026;-76
2021/12/08 00:42:27;;;;;;;33.47;19.17;;;;;;;;;;5036218;28;20025;-75
2021/12/08 00:44:53;;;;;;;40.27;20.83;;;;;;;;;;5035959;28;20137;-75
2021/12/08 00:47:20;;;;;;;39.60;23.00;;;;;;;;;;5036554;28;20047;-75
2021/12/08 00:49:47;;;;;;;41.70;22.47;;;;;;;;;;5036730;28;20021;-75
2021/12/08 00:52:16;;;;;;;39.00;22.37;;;;;;;;;;5036311;28;20436;-75
2021/12/08 00:54:43;;;;;;;42.97;23.20;;;;;;;;;;5035983;28;20021;-76
2021/12/08 00:57:09;;;;;;;40.33;23.50;;;;;;;;;;5036119;28;20032;-75
2021/12/08 00:59:36;;;;;;;40.27;23.10;;;;;;;;;;5035809;28;20044;-76
2021/12/08 01:02:02;;;;;;;37.13;22.10;;;;;;;;;;5035626;28;20055;-75
2021/12/08 01:04:33;;;;;;;40.00;21.70;;;;;;;;;;5035697;28;20041;-75
2021/12/08 01:06:59;;;;;;;36.97;20.67;;;;;;;;;;5036014;28;20445;-76
2021/12/08 01:09:25;;;;;;;34.60;19.83;;;;;;;;;;5035654;28;20486;-76
2021/12/08 01:11:51;;;;;;;36.10;20.10;;;;;;;;;;5035883;28;20029;-74
2021/12/08 01:14:18;;;;;;;37.33;20.60;;;;;;;;;;5035852;28;20558;-74
2021/12/08 01:16:44;;;;;;;34.50;18.57;;;;;;;;;;5037469;28;20109;-77
2021/12/08 01:19:10;;;;;;;29.73;17.20;;;;;;;;;;5055545;28;20061;-75
2021/12/08 01:21:37;;;;;;;28.77;16.47;;;;;;;;;;5035759;28;20320;-75
2021/12/08 01:24:03;;;;;;;28.77;16.00;;;;;;;;;;5034331;28;20040;-76
2021/12/08 01:26:29;;;;;;;27.70;16.43;;;;;;;;;;5033630;28;20026;-75
2021/12/08 01:28:57;;;;;;;27.47;14.90;;;;;;;;;;5034633;28;20104;-76
2021/12/08 01:31:23;;;;;;;26.37;16.73;;;;;;;;;;5035161;28;20385;-75
2021/12/08 01:33:49;;;;;;;30.97;17.37;;;;;;;;;;5035211;28;20018;-75
2021/12/08 01:36:16;;;;;;;26.43;15.40;;;;;;;;;;5035215;28;20025;-75
2021/12/08 01:38:42;;;;;;;29.17;15.97;;;;;;;;;;5035360;28;20450;-76
2021/12/08 01:41:08;;;;;;;26.53;14.63;;;;;;;;;;5034973;28;20091;-76
2021/12/08 01:46:22;;;;;;;28.27;16.13;;;;;;;;;;5035220;28;20064;-75
2021/12/08 01:48:48;;;;;;;31.40;16.30;;;;;;;;;;5035008;28;20068;-75
2021/12/08 01:51:16;;;;;;;32.17;15.90;;;;;;;;;;5035173;28;20071;-76
2021/12/08 01:53:43;;;;;;;26.93;15.07;;;;;;;;;;5035114;28;20033;-75
2021/12/08 01:56:09;;;;;;;25.33;14.50;;;;;;;;;;5035108;28;20022;-75
2021/12/08 01:58:36;;;;;;;28.43;15.67;;;;;;;;;;5032925;28;20021;-76
2021/12/08 02:01:04;;;;;;;26.90;14.43;;;;;;;;;;5031946;28;20037;-76
2021/12/08 02:03:31;;;;;;;27.33;14.20;;;;;;;;;;5031246;28;20403;-75
2021/12/08 02:05:57;;;;;;;25.17;14.77;;;;;;;;;;5033891;28;20060;-75
2021/12/08 02:08:24;;;;;;;23.27;13.43;;;;;;;;;;5034624;28;20025;-75
2021/12/08 02:10:50;;;;;;;23.33;13.87;;;;;;;;;;5034414;28;20025;-76
2021/12/08 02:13:17;;;;;;;20.97;13.47;;;;;;;;;;5034372;28;20029;-76
2021/12/08 02:15:43;;;;;;;25.97;13.27;;;;;;;;;;5034744;28;20032;-76
2021/12/08 02:18:11;;;;;;;30.03;13.63;;;;;;;;;;5034904;28;20034;-76
2021/12/08 02:20:38;;;;;;;23.40;12.77;;;;;;;;;;5034675;28;20025;-75
2021/12/08 02:23:06;;;;;;;22.17;11.90;;;;;;;;;;5034807;28;20033;-76
2021/12/08 02:25:32;;;;;;;20.93;12.27;;;;;;;;;;5034655;28;20474;-76
2021/12/08 02:27:59;;;;;;;19.63;12.17;;;;;;;;;;5034197;28;20116;-76
2021/12/08 02:30:38;;;;;;;20.43;12.57;;;;;;;;;;5034534;28;20028;-76
2021/12/08 02:47:07;;;;;;;21.57;11.50;;;;;;;;;;5034199;28;20028;-76
2021/12/08 02:49:34;;;;;;;20.42;11.55;;;;;;;;;;5033974;28;20577;-75
2021/12/08 02:52:00;;;;;;;25.83;12.37;;;;;;;;;;5032418;28;20026;-75
2021/12/08 02:54:32;;;;;;;20.83;11.37;;;;;;;;;;5032608;28;20025;-75
2021/12/08 02:56:58;;;;;;;21.02;11.73;;;;;;;;;;5033595;28;20466;-76
2021/12/08 02:59:24;;;;;;;20.93;11.33;;;;;;;;;;5033595;28;20416;-76
2021/12/08 03:01:51;;;;;;;23.67;12.83;;;;;;;;;;5033665;28;20128;-76
2021/12/08 03:04:17;;;;;;;21.10;10.80;;;;;;;;;;5034102;28;20080;-75
2021/12/08 03:06:43;;;;;;;22.20;11.77;;;;;;;;;;5033748;28;20021;-76
2021/12/08 03:09:09;;;;;;;23.53;11.13;;;;;;;;;;5049253;28;20037;-75
2021/12/08 03:11:36;;;;;;;19.37;11.33;;;;;;;;;;5033670;28;20515;-76
2021/12/08 03:14:07;;;;;;;20.97;11.63;;;;;;;;;;5033918;28;20034;-75
2021/12/08 03:16:34;;;;;;;21.73;11.70;;;;;;;;;;5033720;28;20026;-76
2021/12/08 03:19:00;;;;;;;23.47;12.30;;;;;;;;;;5033272;28;20060;-75
2021/12/08 03:21:31;;;;;;;18.63;11.23;;;;;;;;;;5032232;28;20026;-76
2021/12/08 03:24:44;;;;;;;22.90;12.33;;;;;;;;;;5032770;28;20457;-76
2021/12/08 03:29:49;;;;;;;18.80;10.40;;;;;;;;;;5033585;28;20038;-75
2021/12/08 03:32:18;;;;;;;18.10;10.47;;;;;;;;;;5033282;28;20378;-75
2021/12/08 03:34:52;;;;;;;21.10;11.27;;;;;;;;;;5032904;28;20100;-76
2021/12/08 03:37:22;;;;;;;21.13;10.67;;;;;;;;;;5032722;28;20482;-75
2021/12/08 03:39:50;;;;;;;18.43;9.83;;;;;;;;;;5033181;28;20029;-75
2021/12/08 03:42:16;;;;;;;17.13;10.20;;;;;;;;;;5032959;28;20026;-75
2021/12/08 03:44:42;;;;;;;20.63;10.07;;;;;;;;;;5032384;28;20048;-75
2021/12/08 03:47:14;;;;;;;18.43;10.27;;;;;;;;;;5032912;28;20034;-75
2021/12/08 03:49:42;;;;;;;21.13;10.65;;;;;;;;;;5033167;28;20030;-76
2021/12/08 03:52:08;;;;;;;19.20;10.50;;;;;;;;;;5033080;28;20021;-75
2021/12/08 03:54:34;;;;;;;21.33;10.53;;;;;;;;;;5032076;28;20032;-76
2021/12/08 03:57:00;;;;;;;19.80;10.87;;;;;;;;;;5032270;28;20018;-74
2021/12/08 03:59:26;;;;;;;18.07;9.80;;;;;;;;;;5032946;28;20029;-76
2021/12/08 04:01:52;;;;;;;17.37;9.97;;;;;;;;;;5032776;28;20042;-76
2021/12/08 04:04:18;;;;;;;18.97;9.90;;;;;;;;;;5032942;28;20069;-76
2021/12/08 04:06:48;;;;;;;19.83;10.13;;;;;;;;;;5033243;28;20470;-76
2021/12/08 04:09:39;;;;;;;19.20;10.53;;;;;;;;;;5032894;28;20443;-75
2021/12/08 04:12:04;;;;;;;19.43;9.97;;;;;;;;;;5032889;28;20079;-76
2021/12/08 04:14:32;;;;;;;20.20;9.63;;;;;;;;;;5033033;28;20036;-75
2021/12/08 04:17:00;;;;;;;18.27;9.90;;;;;;;;;;5032698;28;20030;-75
2021/12/08 04:19:27;;;;;;;17.63;10.00;;;;;;;;;;5032689;28;20053;-76
2021/12/08 04:21:54;;;;;;;19.37;11.40;;;;;;;;;;5032775;28;20025;-75
2021/12/08 04:24:21;;;;;;;16.40;9.10;;;;;;;;;;5032634;28;20470;-75
2021/12/08 04:26:50;;;;;;;15.87;9.33;;;;;;;;;;5032614;28;20030;-76
2021/12/08 04:29:17;;;;;;;18.27;9.83;;;;;;;;;;5032637;28;20083;-77
2021/12/08 04:31:44;;;;;;;17.87;10.57;;;;;;;;;;5032166;28;20032;-75
2021/12/08 04:34:15;;;;;;;18.70;11.60;;;;;;;;;;5032728;28;20025;-75
2021/12/08 04:36:45;;;;;;;17.57;10.23;;;;;;;;;;5032739;28;20076;-75
2021/12/08 04:39:28;;;;;;;18.17;10.80;;;;;;;;;;5032561;28;20029;-76
2021/12/08 04:42:01;;;;;;;20.57;11.03;;;;;;;;;;5032155;28;20076;-75
2021/12/08 04:44:37;;;;;;;18.25;10.82;;;;;;;;;;5032349;28;20029;-75
2021/12/08 04:50:18;;;;;;;19.50;10.47;;;;;;;;;;5033009;28;20056;-75
2021/12/08 05:03:42;;;;;;;15.13;8.87;;;;;;;;;;5032560;28;20482;-76
2021/12/08 05:06:21;;;;;;;15.83;8.83;;;;;;;;;;5035118;28;20534;-75
2021/12/08 05:08:50;;;;;;;17.43;9.77;;;;;;;;;;5035810;28;20386;-75
2021/12/08 05:11:21;;;;;;;18.97;10.47;;;;;;;;;;5036146;28;20032;-74
2021/12/08 05:13:50;;;;;;;14.80;9.50;;;;;;;;;;5036186;28;20037;-76
2021/12/08 05:16:17;;;;;;;16.73;9.20;;;;;;;;;;5035852;28;20037;-76
2021/12/08 05:18:44;;;;;;;19.03;9.27;;;;;;;;;;5035793;28;20036;-76
2021/12/08 05:21:13;;;;;;;17.07;9.33;;;;;;;;;;5035307;28;20033;-76
2021/12/08 05:23:48;;;;;;;13.27;7.70;;;;;;;;;;5034962;28;20033;-75
2021/12/08 05:26:20;;;;;;;16.47;8.00;;;;;;;;;;5035782;28;20029;-75
2021/12/08 05:28:47;;;;;;;15.43;8.50;;;;;;;;;;5035521;28;20108;-76
2021/12/08 05:31:19;;;;;;;16.30;7.33;;;;;;;;;;5035001;28;20466;-76
2021/12/08 05:33:46;;;;;;;15.23;7.30;;;;;;;;;;5035399;28;20036;-77
2021/12/08 05:36:13;;;;;;;10.27;5.73;;;;;;;;;;5035541;28;20034;-75
2021/12/08 05:38:39;;;;;;;13.93;6.57;;;;;;;;;;5035270;28;20049;-76
2021/12/08 05:41:09;;;;;;;16.57;8.33;;;;;;;;;;5035311;28;20017;-75
2021/12/08 05:43:35;;;;;;;14.87;7.50;;;;;;;;;;5035630;28;20064;-75
2021/12/08 05:46:01;;;;;;;13.03;7.17;;;;;;;;;;5035578;28;20072;-76
2021/12/08 05:48:30;;;;;;;11.27;6.30;;;;;;;;;;5038683;28;20036;-76
2021/12/08 05:51:00;;;;;;;13.53;7.57;;;;;;;;;;5040870;28;20385;-77
2021/12/08 05:53:26;;;;;;;15.10;8.40;;;;;;;;;;5035334;28;20025;-76
2021/12/08 05:55:53;;;;;;;16.20;7.60;;;;;;;;;;5035355;28;20029;-76
2021/12/08 05:58:21;;;;;;;16.00;7.70;;;;;;;;;;5034964;28;20021;-76
2021/12/08 06:00:53;;;;;;;19.23;8.70;;;;;;;;;;5035029;28;20033;-75
2021/12/08 06:03:20;;;;;;;18.73;9.53;;;;;;;;;;5034956;28;20036;-76
2021/12/08 06:05:47;;;;;;;20.30;10.40;;;;;;;;;;5033851;28;20390;-77
2021/12/08 06:08:13;;;;;;;18.27;10.27;;;;;;;;;;5034905;28;20163;-76
2021/12/08 06:10:40;;;;;;;17.23;9.83;;;;;;;;;;5049469;28;20422;-76
2021/12/08 06:13:09;;;;;;;18.43;9.77;;;;;;;;;;5034636;28;20017;-76
2021/12/08 06:15:35;;;;;;;16.47;9.33;;;;;;;;;;5034676;28;20071;-76
2021/12/08 06:18:01;;;;;;;18.27;9.53;;;;;;;;;;5033422;28;20505;-76
2021/12/08 06:20:27;;;;;;;16.63;8.90;;;;;;;;;;5034615;28;20026;-75
2021/12/08 06:22:56;;;;;;;17.63;8.70;;;;;;;;;;5034553;28;20072;-74
2021/12/08 06:25:22;;;;;;;13.97;8.90;;;;;;;;;;5034544;28;20040;-76
2021/12/08 06:27:48;;;;;;;18.37;8.77;;;;;;;;;;5032921;28;20445;-76
2021/12/08 06:30:17;;;;;;;14.93;8.67;;;;;;;;;;5034489;28;20108;-74
2021/12/08 06:32:43;;;;;;;16.07;8.33;;;;;;;;;;5034303;28;20025;-74
2021/12/08 06:35:12;;;;;;;14.90;8.07;;;;;;;;;;5033921;28;20425;-74
2021/12/08 06:37:40;;;;;;;18.97;8.53;;;;;;;;;;5034254;28;20025;-74
2021/12/08 06:40:06;;;;;;;18.97;8.07;;;;;;;;;;5034053;28;20021;-75
2021/12/08 06:42:34;;;;;;;17.23;8.80;;;;;;;;;;5033770;28;20025;-74
2021/12/08 06:45:01;;;;;;;15.17;8.17;;;;;;;;;;5034217;28;20118;-74
2021/12/08 06:47:29;;;;;;;14.47;8.60;;;;;;;;;;5033822;28;20478;-74
2021/12/08 06:49:57;;;;;;;15.27;7.63;;;;;;;;;;5033045;28;20030;-79
2021/12/08 06:52:26;;;;;;;15.93;7.93;;;;;;;;;;5031920;28;20727;-79
2021/12/08 06:54:57;;;;;;;13.77;7.63;;;;;;;;;;5032185;28;20022;-78
2021/12/08 06:57:30;;;;;;;15.83;7.57;;;;;;;;;;5034151;28;20564;-78
2021/12/08 07:00:00;;;;;;;18.47;7.77;;;;;;;;;;5033836;28;20033;-77
2021/12/08 07:02:53;;;;;;;12.83;7.23;;;;;;;;;;5033895;28;20056;-74
2021/12/08 07:08:16;;;;;;;18.10;9.03;;;;;;;;;;4962547;28;20146;-77
2021/12/08 07:10:44;;;;;;;15.70;8.70;;;;;;;;;;5033587;28;20048;-78
2021/12/08 07:13:12;;;;;;;18.20;9.47;;;;;;;;;;5033437;28;20022;-74
2021/12/08 07:15:42;;;;;;;25.57;9.37;;;;;;;;;;5033993;28;20030;-76
2021/12/08 07:18:11;;;;;;;15.60;8.10;;;;;;;;;;5033525;28;20063;-76
2021/12/08 07:20:45;;;;;;;25.70;8.33;;;;;;;;;;5033346;28;20030;-73
2021/12/08 07:23:16;;;;;;;18.70;8.90;;;;;;;;;;5033500;28;20457;-70
2021/12/08 07:25:43;;;;;;;19.40;9.17;;;;;;;;;;5032252;28;20108;-83
2021/12/08 07:28:10;;;;;;;19.30;9.20;;;;;;;;;;5033482;28;20097;-82
2021/12/08 07:30:41;;;;;;;19.73;10.80;;;;;;;;;;5033215;28;20470;-80
2021/12/08 07:33:07;;;;;;;20.23;11.17;;;;;;;;;;5033476;28;20052;-76
2021/12/08 07:35:41;;;;;;;17.63;10.77;;;;;;;;;;5033326;28;20036;-76
2021/12/08 07:38:08;;;;;;;33.77;14.97;;;;;;;;;;5033471;28;20021;-78
2021/12/08 07:40:40;;;;;;;25.80;14.37;;;;;;;;;;5033155;28;20433;-77
2021/12/08 07:43:08;;;;;;;24.10;14.77;;;;;;;;;;5033011;28;20038;-78
2021/12/08 07:45:41;;;;;;;25.60;13.23;;;;;;;;;;5033269;28;20515;-76
2021/12/08 07:48:07;;;;;;;;;;;;;;;;;;5033715;28;20363;-78
2021/12/08 07:50:40;;;;;;;18.20;9.83;;;;;;;;;;5032765;28;20015;-76
2021/12/08 07:53:08;;;;;;;15.60;9.32;;;;;;;;;;5032872;28;20036;-76
2021/12/08 07:55:36;;;;;;;18.80;9.87;;;;;;;;;;5032821;28;20013;-76
2021/12/08 07:58:02;;;;;;;17.17;10.17;;;;;;;;;;5033252;28;20373;-75
2021/12/08 08:00:43;;;;;;;16.97;9.00;;;;;;;;;;5033048;28;20022;-77
2021/12/08 08:03:11;;;;;;;17.13;9.70;;;;;;;;;;5032851;28;20034;-77
2021/12/08 08:05:39;;;;;;;20.13;9.80;;;;;;;;;;5032904;28;20025;-76
2021/12/08 08:08:07;;;;;;;19.03;9.00;;;;;;;;;;5031208;28;20025;-76
2021/12/08 08:10:41;;;;;;;17.07;8.93;;;;;;;;;;5031987;28;20102;-77
2021/12/08 08:13:09;;;;;;;16.57;9.73;;;;;;;;;;5032810;28;20024;-77
2021/12/08 08:15:40;;;;;;;18.53;9.40;;;;;;;;;;5031619;28;20021;-77
2021/12/08 08:18:10;;;;;;;26.97;9.83;;;;;;;;;;5032756;28;20018;-76
2021/12/08 08:20:38;;;;;;;16.73;9.80;;;;;;;;;;5032709;28;20018;-77
2021/12/08 08:23:04;;;;;;;25.57;10.00;;;5.40;82.10;;;;;;5032507;28;20045;-76
2021/12/08 08:25:37;;;;;;;27.10;11.17;;;2.20;81.90;;;;;;5031248;28;20056;-76
2021/12/08 08:28:04;;;;;;;;;;;2.10;80.90;;;;;;5047169;28;20490;-76
2021/12/08 08:30:43;;;;;;;46.67;20.77;;;2.10;80.40;;;;;;5032114;28;19909;-78
2021/12/08 08:33:10;;;;;;;53.30;28.87;;;2.10;80.20;;;;;;5047597;28;20445;-75
2021/12/08 08:35:40;;;;;;;23.50;14.60;;;2.20;80.90;;;;;;5031874;28;20032;-74
2021/12/08 08:38:11;;;;;;;18.73;11.03;;;2.20;80.90;;;;;;5031484;28;20121;-78
2021/12/08 08:40:46;;;;;;;23.50;10.40;;;2.20;80.90;;;;;;5032632;28;20120;-75
2021/12/08 08:43:12;;;;;;;18.57;10.43;;;2.20;81.10;;;;;;5035937;28;20037;-74
2021/12/08 08:45:44;;;;;;;27.50;15.27;;;2.20;80.30;;;;;;5036336;28;20538;-78
2021/12/08 08:48:14;;;;;;;30.43;16.37;;;2.30;80.90;;;;;;5036541;28;20463;-78
2021/12/08 08:50:57;;;;;;;37.70;17.63;;;2.30;80.70;;;;;;5036334;28;20025;-76
2021/12/08 08:53:26;;;;;;;28.77;16.67;;;2.30;80.50;;;;;;5051679;28;20029;-75
2021/12/08 08:55:57;;;;;;;25.67;14.10;;;2.40;82.60;;;;;;5036035;28;20029;-77
2021/12/08 08:58:24;;;;;;;27.23;13.13;;;;;;;;;;5034294;28;20028;-77
2021/12/08 09:00:56;;;;;;;30.03;13.07;;;2.40;81.70;;;;;;5047539;28;20032;-77
2021/12/08 09:03:27;;;;;;;17.20;10.02;;;2.50;82.00;;;;;;5032238;28;20048;-76
2021/12/08 09:06:04;;;;;;;17.63;9.70;;;2.40;81.20;;;;;;5033226;28;20037;-78
2021/12/08 09:08:32;;;;;;;16.77;8.10;;;2.40;80.90;;;;;;5033370;28;20036;-78
2021/12/08 09:11:15;;;;;;;16.83;7.93;;;;;;;;;;5035889;28;20025;-78
2021/12/08 09:13:41;;;;;;;;;;;;;;;;;;5037466;28;20096;-78
2021/12/08 09:16:15;;;;;;;10.33;6.63;;;;;;;;;;5035865;28;20381;-78
2021/12/08 09:19:00;;;;;;;13.13;6.93;;;2.40;80.40;;;;;;5037412;28;20056;-79
2021/12/08 09:21:42;;;;;;;12.90;6.90;;;2.60;80.10;;;;;;5035774;28;20075;-77
2021/12/08 09:24:15;;;;;;;20.10;7.93;;;2.70;80.60;;;;;;5035799;28;20025;-77
2021/12/08 09:26:47;;;;;;;15.40;7.07;;;2.70;79.80;;;;;;5036304;28;20532;-79
2021/12/08 09:29:17;;;;;;;14.80;7.60;;;2.70;79.10;;;;;;5036150;28;20100;-79
2021/12/08 09:31:58;;;;;;;17.23;7.90;;;2.80;78.70;;;;;;5035779;28;20496;-79
2021/12/08 09:34:43;;;;;;;15.03;7.63;;;2.80;78.60;;;;;;5036105;28;20070;-77
2021/12/08 09:37:34;;;;;;;15.13;8.30;;;2.90;79.20;;;;;;5035772;28;20084;-78
2021/12/08 09:40:10;;;;;;;15.77;8.40;;;3.00;80.30;;;;;;5034519;28;20414;-78
2021/12/08 09:42:43;;;;;;;16.63;8.10;;;3.00;79.60;;;;;;5035690;28;20026;-78
2021/12/08 09:45:17;;;;;;;20.08;9.68;;;3.00;78.90;;;;;;5035722;28;20025;-77
2021/12/08 09:47:43;;;;;;;18.20;8.53;;;3.10;78.90;;;;;;5035687;28;20462;-77
2021/12/08 09:50:12;;;;;;;14.23;7.73;;;3.10;78.80;;;;;;5034551;28;20094;-78
2021/12/08 09:52:41;;;;;;;16.47;8.37;;;3.20;78.90;;;;;;5033189;28;20022;-80
2021/12/08 09:55:10;;;;;;;16.73;7.30;;;3.20;78.90;;;;;;5035168;28;20025;-79
2021/12/08 09:57:36;;;;;;;13.20;7.13;;;3.20;78.50;;;;;;5033923;28;20026;-79
2021/12/08 10:00:06;;;;;;;16.87;8.77;;;3.30;79.50;;;;;;5035562;28;20026;-79
2021/12/08 10:02:34;;;;;;;20.63;8.90;;;3.20;78.60;;;;;;5032971;28;20075;-76
2021/12/08 10:05:09;;;;;;;24.90;7.30;;;3.30;79.20;;;;;;5034858;28;20033;-79
2021/12/08 10:07:37;;;;;;;18.87;6.93;;;3.30;77.80;;;;;;5033155;28;20660;-80
2021/12/08 10:10:04;;;;;;;13.37;7.27;;;;;;;;;;5035030;28;20470;-76
2021/12/08 10:12:33;;;;;;;17.03;7.23;;;;;;;;;;5035013;28;20021;-78
2021/12/08 10:14:59;;;;;;;14.10;6.80;;;;;;;;;;5035108;28;20438;-78
2021/12/08 10:17:25;;;;;;;15.63;7.43;;;;;;;;;;5034429;28;20026;-76
2021/12/08 10:20:31;;;;;;;27.57;11.17;;;3.30;77.30;;;;;;5033430;28;20584;-77
2021/12/08 10:23:11;;;;;;;21.50;10.27;;;;;;;;;;5003116;28;20123;-77
2021/12/08 10:25:47;;;;;;;16.67;9.53;;;3.50;78.70;;;;;;5033941;28;20041;-76
2021/12/08 10:28:17;;;;;;;15.30;9.33;;;3.40;77.50;;;;;;5033936;28;20036;-78
2021/12/08 10:30:52;;;;;;;16.33;8.73;;;3.50;77.50;;;;;;5034520;28;20231;-79
2021/12/08 10:33:49;;;;;;;17.00;8.07;;;3.50;76.70;;;;;;5034684;28;20114;-77
2021/12/08 10:36:46;;;;;;;13.47;6.47;;;3.50;76.70;;;;;;5034276;28;20033;-78
2021/12/08 10:39:15;;;;;;;17.23;6.73;;;3.60;78.50;;;;;;5034686;28;20029;-80
2021/12/08 10:41:52;;;;;;;15.77;7.10;;;3.60;77.20;;;;;;5034457;28;20029;-77
2021/12/08 10:44:44;;;;;;;16.27;6.27;;;3.50;76.60;;;;;;5034069;28;20122;-77
2021/12/08 10:47:13;;;;;;;18.17;6.78;;;3.60;76.70;;;;;;5034018;28;20386;-79
2021/12/08 10:55:06;;;;;;;15.80;7.50;;;3.70;77.70;;;;;;5033927;28;20498;-78
2021/12/08 10:57:37;;;;;;;15.07;6.80;;;;;;;;;;5033202;28;20021;-78
2021/12/08 11:00:30;;;;;;;14.90;6.87;;;;;;;;;;5033754;28;20020;-79
2021/12/08 11:03:00;;;;;;;15.93;7.85;;;;;;;;;;5030674;28;20136;-78
2021/12/08 11:05:27;;;;;;;18.23;8.20;;;;;;;;;;5033754;28;20109;-77
2021/12/08 11:08:05;;;;;;;19.13;7.87;;;;;;;;;;5033670;28;20441;-78
2021/12/08 11:10:32;;;;;;;13.90;7.70;;;;;;;;;;5033472;28;20474;-79
2021/12/08 11:12:59;;;;;;;16.40;8.80;;;;;;;;;;5034325;28;20497;-80
2021/12/08 11:15:27;;;;;;;17.37;7.70;;;;;;;;;;5032331;28;20492;-77
2021/12/08 11:18:11;;;;;;;14.93;8.07;;;;;;;;;;5033655;28;20056;-79
2021/12/08 11:20:42;;;;;;;16.37;8.43;;;;;;;;;;5033652;28;20445;-79
2021/12/08 11:23:14;;;;;;;17.37;8.33;;;;;;;;;;5034055;28;20029;-81
2021/12/08 11:25:42;;;;;;;17.43;9.03;;;;;;;;;;5034367;28;20033;-83
2021/12/08 11:28:18;;;;;;;20.97;7.87;;;;;;;;;;5033783;28;20350;-82
2021/12/08 11:30:44;;;;;;;18.23;8.83;;;;;;;;;;5033467;28;20060;-82
2021/12/08 11:33:17;;;;;;;18.27;9.10;;;;;;;;;;5032113;28;20048;-76
2021/12/08 11:35:43;;;;;;;21.67;9.63;;;;;;;;;;5033022;28;20417;-83
2021/12/08 11:38:09;;;;;;;22.67;9.17;;;;;;;;;;5033584;28;20022;-84
2021/12/08 11:40:36;;;;;;;21.90;9.87;;;;;;;;;;5033431;28;20082;-83
2021/12/08 11:43:03;;;;;;;15.37;8.60;;;;;;;;;;5033261;28;20028;-84
2021/12/08 11:45:36;;;;;;;15.97;8.07;;;;;;;;;;5033687;28;20033;-82
2021/12/08 11:48:02;;;;;;;;;;;;;;;;;;5033407;28;20029;-81
2021/12/08 11:50:28;;;;;;;16.17;7.43;;;;;;;;;;5033141;28;19905;-80
2021/12/08 11:52:54;;;;;;;18.43;8.00;;;;;;;;;;5033371;28;20021;-84
2021/12/08 11:55:22;;;;;;;22.83;7.60;;;;;;;;;;5033190;28;20382;-84
2021/12/08 11:57:58;;;;;;;16.67;8.87;;;;;;;;;;5032032;28;20021;-82
2021/12/08 12:00:27;;;;;;;15.77;8.13;;;;;;;;;;5032539;28;20057;-80
2021/12/08 12:02:58;;;;;;;17.73;7.60;;;;;;;;;;5032516;28;20375;-84
2021/12/08 12:05:24;;;;;;;13.90;7.03;;;;;;;;;;5004312;28;20132;-80
2021/12/08 12:07:50;;;;;;;14.37;6.37;;;;;;;;;;5032427;28;20500;-83
2021/12/08 12:10:18;;;;;;;13.17;6.53;;;;;;;;;;5032952;28;20017;-82
2021/12/08 12:12:44;;;;;;;11.63;6.10;;;;;;;;;;5033227;28;20037;-80
2021/12/08 12:15:12;;;;;;;10.77;6.00;;;;;;;;;;5034042;28;20025;-83
2021/12/08 12:17:38;;;;;;;12.70;6.20;;;;;;;;;;5037014;28;20026;-78
2021/12/08 12:20:04;;;;;;;14.30;6.47;;;;;;;;;;5036421;28;20036;-82
2021/12/08 12:22:42;;;;;;;12.07;6.23;;;;;;;;;;5036852;28;20104;-77
2021/12/08 12:25:17;;;;;;;10.30;6.03;;;;;;;;;;5036561;28;20117;-80
2021/12/08 12:27:58;;;;;;;11.53;6.60;;;;;;;;;;5036908;28;20030;-84
2021/12/08 12:30:36;;;;;;;10.40;5.73;;;;;;;;;;5034480;28;20389;-83
2021/12/08 12:33:14;;;;;;;13.17;5.87;;;;;;;;;;5035005;28;20079;-83
2021/12/08 12:35:47;;;;;;;12.53;6.10;;;;;;;;;;5035553;28;20022;-82
2021/12/08 12:38:13;;;;;;;14.77;6.20;;;;;;;;;;5035733;28;20101;-82
2021/12/08 12:40:48;;;;;;;12.17;6.13;;;;;;;;;;5035161;28;20399;-83
2021/12/08 12:43:30;;;;;;;12.03;6.30;;;;;;;;;;5037390;28;20113;-78
2021/12/08 12:46:14;;;;;;;11.32;6.68;;;;;;;;;;5037291;28;20040;-79
2021/12/08 12:48:40;;;;;;;13.63;6.47;;;;;;;;;;5036231;28;20037;-75
2021/12/08 12:51:10;;;;;;;13.43;6.90;;;;;;;;;;5036237;28;20540;-75
2021/12/08 12:53:41;;;;;;;12.50;6.23;;;;;;;;;;5036380;28;20021;-83
2021/12/08 12:56:11;;;;;;;15.37;6.87;;;;;;;;;;5036435;28;20040;-75
2021/12/08 12:58:53;;;;;;;11.37;6.73;;;;;;;;;;5036411;28;20033;-83
2021/12/08 13:01:32;;;;;;;14.77;6.82;;;;;;;;;;5036137;28;20052;-82
2021/12/08 13:03:59;;;;;;;16.00;6.40;;;;;;;;;;5034960;28;20505;-80
2021/12/08 13:06:42;;;;;;;13.50;6.97;;;;;;;;;;5035696;28;20029;-76
2021/12/08 13:09:10;;;;;;;12.73;6.43;;;;;;;;;;5036002;28;20033;-85
2021/12/08 13:12:02;;;;;;;13.73;6.43;;;;;;;;;;5036059;28;20030;-84
2021/12/08 13:14:30;;;;;;;12.90;6.50;;;;;;;;;;5035377;28;20056;-84
2021/12/08 13:17:14;;;;;;;11.40;6.50;;;;;;;;;;5036077;28;20060;-76
2021/12/08 13:19:45;;;;;;;17.37;7.00;;;;;;;;;;5035131;28;20033;-83
2021/12/08 13:22:31;;;;;;;18.50;8.17;;;;;;;;;;5035363;28;20033;-83
2021/12/08 13:25:00;;;;;;;15.50;7.47;;;;;;;;;;5033780;28;20125;-83
2021/12/08 13:27:29;;;;;;;13.13;6.37;;;;;;;;;;5033992;28;20029;-84
2021/12/08 13:30:10;;;;;;;11.83;7.07;;;;;;;;;;5035423;28;20474;-82
2021/12/08 13:32:45;;;;;;;13.93;6.77;;;;;;;;;;5035852;28;20470;-82
2021/12/08 13:35:11;;;;;;;13.40;6.37;;;;;;;;;;5035668;28;20388;-83
2021/12/08 13:37:38;;;;;;;12.33;6.67;;;;;;;;;;5036162;28;20340;-82
2021/12/08 13:40:08;;;;;;;9.90;5.70;;;;;;;;;;5036550;28;20026;-85
2021/12/08 13:42:47;;;;;;;12.47;6.27;;;;;;;;;;5036535;28;20040;-82
2021/12/08 13:45:14;;;;;;;9.30;5.97;;;;;;;;;;5035229;28;20587;-83
2021/12/08 13:47:44;;;;;;;10.90;5.67;;;;;;;;;;5034237;28;20112;-79
2021/12/08 13:50:21;;;;;;;10.67;6.30;;;;;;;;;;5033400;28;20026;-83
2021/12/08 13:53:08;;;;;;;12.63;6.80;;;;;;;;;;5035221;28;20026;-82
2021/12/08 13:55:40;;;;;;;11.40;6.13;;;;;;;;;;5034360;28;20025;-76
2021/12/08 13:58:06;;;;;;;18.83;6.67;;;;;;;;;;5035361;28;20120;-79
2021/12/08 14:00:40;;;;;;;15.40;7.13;;;;;;;;;;5035366;28;20026;-85
2021/12/08 14:03:09;;;;;;;14.57;6.97;;;;;;;;;;5034600;28;20049;-84
2021/12/08 14:05:45;;;;;;;12.47;7.23;;;;;;;;;;5034748;28;20040;-78
2021/12/08 14:08:16;;;;;;;14.20;7.63;;;;;;;;;;5034951;28;20036;-79
2021/12/08 14:10:44;;;;;;;13.27;6.80;;;;;;;;;;5034795;28;20055;-78
2021/12/08 14:13:11;;;;;;;12.23;6.53;;;;;;;;;;5035194;28;20100;-78
2021/12/08 14:15:37;;;;;;;11.23;6.40;;;;;;;;;;5035010;28;20021;-78
2021/12/08 14:18:15;;;;;;;17.63;6.87;;;;;;;;;;5034595;28;20478;-73
2021/12/08 14:20:42;;;;;;;12.80;7.00;;;;;;;;;;5034789;28;20022;-78
2021/12/08 14:23:09;;;;;;;11.37;6.17;;;;;;;;;;5034850;28;20486;-76
2021/12/08 14:25:38;;;;;;;10.63;6.23;;;;;;;;;;5032385;28;20128;-75
2021/12/08 14:28:22;;;;;;;13.30;7.73;;;;;;;;;;5034164;28;20029;-78
2021/12/08 14:30:48;;;;;;;16.33;9.30;;;3.70;76.50;;;;;;5034396;28;20025;-80
2021/12/08 14:33:23;;;;;;;13.83;7.50;;;4.80;80.10;;;;;;5034657;28;20021;-74
2021/12/08 14:36:01;;;;;;;14.83;7.53;;;4.80;80.50;;;;;;5034215;28;20029;-80
2021/12/08 14:38:27;;;;;;;11.03;7.40;;;;;;;;;;5033473;28;20381;-79
2021/12/08 14:40:54;;;;;;;12.47;7.53;;;;;;;;;;5033883;28;20490;-78
2021/12/08 14:43:39;;;;;;;16.77;9.60;;;;;;;;;;5034699;28;20022;-79
2021/12/08 14:46:09;;;;;;;12.90;7.93;;;;;;;;;;5034441;28;20029;-78
2021/12/08 14:48:35;;;;;;;16.77;8.20;;;;;;;;;;5038410;28;20080;-77
2021/12/08 14:51:01;;;;;;;18.07;8.70;;;;;;;;;;5042595;28;20029;-77
2021/12/08 14:53:34;;;;;;;13.77;8.67;;;4.80;81.00;;;;;;5035267;28;20087;-74
2021/12/08 14:56:07;;;;;;;;;;;4.70;83.80;;;;;;5034532;28;20034;-77
2021/12/08 14:58:33;;;;;;;18.85;10.15;;;4.70;83.00;;;;;;5033950;28;20386;-78
2021/12/08 15:00:58;;;;;;;26.53;14.03;;;4.70;82.60;;;;;;5033597;28;20028;-80
2021/12/08 15:03:24;;;;;;;28.60;17.13;;;4.70;83.20;;;;;;5033601;28;20029;-78
2021/12/08 15:05:52;;;;;;;48.03;24.63;;;4.70;84.20;;;;;;5033887;28;20033;-77
2021/12/08 15:08:21;;;;;;;21.83;12.40;;;;;;;;;;5033949;28;20104;-73